createdAt,value
2022-10-11T00:02:02.790Z,85.00
2022-10-11T00:04:29.542Z,84.80
2022-10-11T00:06:56.269Z,84.90
2022-10-11T00:09:22.933Z,85.00
2022-10-11T00:11:49.603Z,84.80
2022-10-11T00:14:16.270Z,86.60
2022-10-11T00:16:44.469Z,86.50
2022-10-11T00:19:11.734Z,86.70
2022-10-11T00:21:38.711Z,86.60
2022-10-11T00:24:05.806Z,87.40
2022-10-11T00:26:32.632Z,87.70
2022-10-11T00:28:59.302Z,88.10
2022-10-11T00:31:26.025Z,88.00
2022-10-11T00:33:54.119Z,88.20
2022-10-11T00:36:21.658Z,88.10
2022-10-11T00:38:48.501Z,88.00
2022-10-11T00:41:15.754Z,87.90
2022-10-11T00:43:43.005Z,88.00
2022-10-11T00:46:18.922Z,88.10
2022-10-11T00:49:07.093Z,88.20
2022-10-11T00:51:38.342Z,88.30
2022-10-11T00:54:07.172Z,88.30
2022-10-11T00:56:37.619Z,88.40
2022-10-11T00:59:16.240Z,88.60
2022-10-11T01:01:43.068Z,88.80
2022-10-11T01:04:09.827Z,88.90
2022-10-11T01:06:36.619Z,88.80
2022-10-11T01:09:04.265Z,88.30
2022-10-11T01:11:31.428Z,88.50
2022-10-11T01:14:18.796Z,88.40
2022-10-11T01:16:59.990Z,88.20
2022-10-11T01:19:40.848Z,88.20
2022-10-11T01:22:25.775Z,88.10
2022-10-11T01:25:34.346Z,88.00
2022-10-11T01:28:41.169Z,88.20
2022-10-11T01:31:16.444Z,87.70
2022-10-11T01:33:59.598Z,87.70
2022-10-11T01:36:39.540Z,87.40
2022-10-11T01:39:16.109Z,87.60
2022-10-11T01:41:49.403Z,87.60
2022-10-11T01:44:16.910Z,87.20
2022-10-11T01:46:43.604Z,87.40
2022-10-11T01:49:10.333Z,87.40
2022-10-11T01:51:47.179Z,87.30
2022-10-11T01:54:17.038Z,87.20
2022-10-11T01:57:21.499Z,87.10
2022-10-11T02:00:14.178Z,87.00
2022-10-11T02:02:52.852Z,87.00
2022-10-11T02:05:25.686Z,87.00
2022-10-11T02:07:56.930Z,86.90
2022-10-11T02:10:51.801Z,87.00
2022-10-11T02:13:49.727Z,86.90
2022-10-11T02:16:20.482Z,87.00
2022-10-11T02:18:51.171Z,87.00
2022-10-11T02:21:20.650Z,86.80
2022-10-11T02:24:09.386Z,86.60
2022-10-11T02:26:39.233Z,86.80
2022-10-11T02:29:09.889Z,86.50
2022-10-11T02:31:37.421Z,86.50
2022-10-11T02:34:20.361Z,86.30
2022-10-11T02:37:05.098Z,86.40
2022-10-11T02:39:39.854Z,86.20
2022-10-11T02:42:18.606Z,86.20
2022-10-11T02:44:50.409Z,86.00
2022-10-11T02:47:17.174Z,86.00
2022-10-11T02:49:43.846Z,86.20
2022-10-11T02:52:10.637Z,86.30
2022-10-11T02:54:37.356Z,86.70
2022-10-11T02:57:04.090Z,86.70
2022-10-11T02:59:30.754Z,86.60
2022-10-11T03:01:57.459Z,86.50
2022-10-11T03:04:24.151Z,86.50
2022-10-11T03:06:50.842Z,86.60
2022-10-11T03:09:17.578Z,86.60
2022-10-11T03:11:44.287Z,86.60
2022-10-11T03:14:10.961Z,86.50
2022-10-11T03:16:37.673Z,86.10
2022-10-11T03:19:05.065Z,86.20
2022-10-11T03:21:31.867Z,86.00
2022-10-11T03:23:58.553Z,86.10
2022-10-11T03:26:25.358Z,85.90
2022-10-11T03:28:52.116Z,85.90
2022-10-11T03:31:18.834Z,86.00
2022-10-11T03:33:45.535Z,86.00
2022-10-11T03:36:12.222Z,86.00
2022-10-11T03:38:39.129Z,86.20
2022-10-11T03:41:06.084Z,86.20
2022-10-11T03:43:32.793Z,86.50
2022-10-11T03:45:59.645Z,86.60
2022-10-11T03:48:26.710Z,86.60
2022-10-11T03:50:53.385Z,86.40
2022-10-11T03:53:20.091Z,86.20
2022-10-11T03:55:46.815Z,86.50
2022-10-11T03:58:13.511Z,86.70
2022-10-11T04:00:40.190Z,86.40
2022-10-11T04:03:06.906Z,86.70
2022-10-11T04:05:33.578Z,86.70
2022-10-11T04:08:00.277Z,86.70
2022-10-11T04:10:27.013Z,86.90
2022-10-11T04:12:53.745Z,87.20
2022-10-11T04:15:20.594Z,86.70
2022-10-11T04:17:47.316Z,87.00
2022-10-11T04:20:14.074Z,86.70
2022-10-11T04:22:41.161Z,86.40
2022-10-11T04:25:09.040Z,86.70
2022-10-11T04:27:35.939Z,86.40
2022-10-11T04:30:02.724Z,85.80
2022-10-11T04:32:29.433Z,85.90
2022-10-11T04:34:56.109Z,85.80
2022-10-11T04:37:22.882Z,85.30
2022-10-11T04:39:49.561Z,85.90
2022-10-11T04:42:16.563Z,86.20
2022-10-11T04:44:43.272Z,86.50
2022-10-11T04:47:09.979Z,86.70
2022-10-11T04:49:36.758Z,86.90
2022-10-11T04:52:03.520Z,86.80
2022-10-11T04:54:30.314Z,86.40
2022-10-11T04:56:57.073Z,86.80
2022-10-11T04:59:23.752Z,87.00
2022-10-11T05:01:50.472Z,86.70
2022-10-11T05:04:17.206Z,86.40
2022-10-11T05:06:43.974Z,86.50
2022-10-11T05:09:10.768Z,86.70
2022-10-11T05:11:37.521Z,86.60
2022-10-11T05:14:04.736Z,86.70
2022-10-11T05:16:31.522Z,86.80
2022-10-11T05:18:58.396Z,86.60
2022-10-11T05:21:27.954Z,86.50
2022-10-11T05:23:58.298Z,86.60
2022-10-11T05:26:27.515Z,86.70
2022-10-11T05:28:55.143Z,86.60
2022-10-11T05:31:22.111Z,86.60
2022-10-11T05:33:49.192Z,86.70
2022-10-11T05:36:16.180Z,86.50
2022-10-11T05:38:43.353Z,86.30
2022-10-11T05:41:13.482Z,85.60
2022-10-11T05:43:40.370Z,85.80
2022-10-11T05:46:08.274Z,86.10
2022-10-11T05:48:35.328Z,86.40
2022-10-11T05:51:07.439Z,86.80
2022-10-11T05:53:34.246Z,87.10
2022-10-11T05:56:01.067Z,86.70
2022-10-11T05:58:27.877Z,86.80
2022-10-11T06:00:56.709Z,86.60
2022-10-11T06:03:23.878Z,86.70
2022-10-11T06:05:55.800Z,86.40
2022-10-11T06:08:23.581Z,86.20
2022-10-11T06:10:50.260Z,86.40
2022-10-11T06:13:16.990Z,86.10
2022-10-11T06:15:50.089Z,85.80
2022-10-11T06:18:19.304Z,85.40
2022-10-11T06:20:45.976Z,85.20
2022-10-11T06:23:12.726Z,85.40
2022-10-11T06:25:39.424Z,85.70
2022-10-11T06:28:06.125Z,86.00
2022-10-11T06:30:32.903Z,86.00
2022-10-11T06:33:04.454Z,85.90
2022-10-11T06:35:31.678Z,85.80
2022-10-11T06:37:58.454Z,85.10
2022-10-11T06:40:25.162Z,85.70
2022-10-11T06:42:51.834Z,86.10
2022-10-11T06:45:18.510Z,86.00
2022-10-11T06:47:45.165Z,85.90
2022-10-11T06:50:11.923Z,85.50
2022-10-11T06:52:38.629Z,86.00
2022-10-11T06:55:05.767Z,85.90
2022-10-11T06:57:32.449Z,86.00
2022-10-11T06:59:59.112Z,85.70
2022-10-11T07:02:25.851Z,86.10
2022-10-11T07:04:52.552Z,86.30
2022-10-11T07:07:19.290Z,86.30
2022-10-11T07:09:45.962Z,85.80
2022-10-11T07:12:12.740Z,85.40
2022-10-11T07:14:39.506Z,85.10
2022-10-11T07:17:06.245Z,85.00
2022-10-11T07:19:33.208Z,84.70
2022-10-11T07:21:59.900Z,83.70
2022-10-11T07:24:26.783Z,84.70
2022-10-11T07:26:53.480Z,85.00
2022-10-11T07:29:21.301Z,84.80
2022-10-11T07:31:48.127Z,84.60
2022-10-11T07:34:15.810Z,84.10
2022-10-11T07:36:42.611Z,84.10
2022-10-11T07:39:13.580Z,83.80
2022-10-11T07:41:46.310Z,83.40
2022-10-11T07:44:13.685Z,83.20
2022-10-11T07:46:40.452Z,82.50
2022-10-11T07:49:07.210Z,82.60
2022-10-11T07:51:34.056Z,81.60
2022-10-11T07:54:04.787Z,81.40
2022-10-11T07:56:33.906Z,81.20
2022-10-11T07:59:03.475Z,81.10
2022-10-11T08:01:30.929Z,80.70
2022-10-11T08:03:58.802Z,80.30
2022-10-11T08:06:29.633Z,80.80
2022-10-11T08:08:58.175Z,80.90
2022-10-11T08:11:27.423Z,80.90
2022-10-11T08:13:54.146Z,81.10
2022-10-11T08:16:21.522Z,80.80
2022-10-11T08:18:48.480Z,81.10
2022-10-11T08:21:17.895Z,81.00
2022-10-11T08:23:45.137Z,81.00
2022-10-11T08:26:12.314Z,81.30
2022-10-11T08:28:39.049Z,80.60
2022-10-11T08:31:06.213Z,80.50
2022-10-11T08:33:32.904Z,80.50
2022-10-11T08:36:03.541Z,80.60
2022-10-11T08:38:30.618Z,81.10
2022-10-11T08:40:59.614Z,80.90
2022-10-11T08:43:46.717Z,80.80
2022-10-11T08:46:15.538Z,80.00
2022-10-11T08:48:45.605Z,80.10
2022-10-11T08:51:20.763Z,80.40
2022-10-11T08:54:25.016Z,80.40
2022-10-11T08:56:52.074Z,80.50
2022-10-11T08:59:39.245Z,80.50
2022-10-11T09:03:06.413Z,80.40
2022-10-11T09:05:34.295Z,80.10
2022-10-11T09:08:21.480Z,80.00
2022-10-11T09:11:18.325Z,80.00
2022-10-11T09:13:56.888Z,79.70
2022-10-11T09:16:32.958Z,79.30
2022-10-11T09:19:16.058Z,79.20
2022-10-11T09:21:59.934Z,79.70
2022-10-11T09:25:04.250Z,80.20
2022-10-11T09:28:01.330Z,79.80
2022-10-11T09:30:25.033Z,77.10
2022-10-11T09:33:17.214Z,77.30
2022-10-11T09:35:48.318Z,77.00
2022-10-11T09:38:26.816Z,76.40
2022-10-11T09:41:15.365Z,76.90
2022-10-11T09:43:48.428Z,76.40
2022-10-11T09:46:29.473Z,75.70
2022-10-11T09:48:57.374Z,76.40
2022-10-11T09:51:27.372Z,76.40
2022-10-11T09:53:56.404Z,76.30
2022-10-11T09:56:29.245Z,75.90
2022-10-11T09:59:25.484Z,77.00
2022-10-11T10:02:14.311Z,75.90
2022-10-11T10:05:10.113Z,75.10
2022-10-11T10:07:40.870Z,75.10
2022-10-11T10:10:45.897Z,74.80
2022-10-11T10:13:22.132Z,74.40
2022-10-11T10:15:53.421Z,73.30
2022-10-11T10:18:35.515Z,72.30
2022-10-11T10:21:04.028Z,70.60
2022-10-11T10:23:36.358Z,71.00
2022-10-11T10:26:24.170Z,70.10
2022-10-11T10:28:57.057Z,69.70
2022-10-11T10:32:01.873Z,67.80
2022-10-11T10:34:36.564Z,68.80
2022-10-11T10:37:08.851Z,68.50
2022-10-11T10:39:42.925Z,68.60
2022-10-11T10:42:18.881Z,68.80
2022-10-11T10:44:53.004Z,69.10
2022-10-11T10:47:36.606Z,69.10
2022-10-11T10:50:41.700Z,71.00
2022-10-11T10:53:33.534Z,70.10
2022-10-11T10:56:10.157Z,70.80
2022-10-11T10:58:39.950Z,70.30
2022-10-11T11:01:23.168Z,70.70
2022-10-11T11:04:16.126Z,70.50
2022-10-11T11:06:48.826Z,70.80
2022-10-11T11:09:28.426Z,71.50
2022-10-11T11:12:30.629Z,73.40
2022-10-11T11:15:27.153Z,74.30
2022-10-11T11:18:20.279Z,74.60
2022-10-11T11:21:05.776Z,74.80
2022-10-11T11:23:52.703Z,75.00
2022-10-11T11:26:40.781Z,74.40
2022-10-11T11:29:12.950Z,74.20
2022-10-11T11:32:17.506Z,73.10
2022-10-11T11:34:53.741Z,72.90
2022-10-11T11:37:30.372Z,73.20
2022-10-11T11:40:18.694Z,73.30
2022-10-11T11:42:51.286Z,72.70
2022-10-11T11:45:27.020Z,72.10
2022-10-11T11:48:17.665Z,71.40
2022-10-11T11:50:51.014Z,71.30
2022-10-11T11:53:24.769Z,70.90
2022-10-11T11:55:59.860Z,71.10
2022-10-11T11:58:40.702Z,70.20
2022-10-11T12:01:28.835Z,70.60
2022-10-11T12:04:04.570Z,69.20
2022-10-11T12:06:43.711Z,70.20
2022-10-11T12:09:23.070Z,69.50
2022-10-11T12:12:00.221Z,68.10
2022-10-11T12:14:35.729Z,68.90
2022-10-11T12:17:23.220Z,68.80
2022-10-11T12:20:24.439Z,67.70
2022-10-11T12:22:53.905Z,67.80
2022-10-11T12:25:23.831Z,67.70
2022-10-11T12:27:51.950Z,68.00
2022-10-11T12:30:43.926Z,67.20
2022-10-11T12:33:24.343Z,66.50
2022-10-11T12:35:51.298Z,66.70
2022-10-11T12:38:37.194Z,65.50
2022-10-11T12:41:10.069Z,64.80
2022-10-11T12:44:15.309Z,65.80
2022-10-11T12:46:58.890Z,65.70
2022-10-11T12:49:32.348Z,65.20
2022-10-11T12:52:03.579Z,65.90
2022-10-11T12:55:07.310Z,66.30
2022-10-11T12:58:22.552Z,66.40
2022-10-11T13:00:52.364Z,66.80
2022-10-11T13:03:40.617Z,67.30
2022-10-11T13:06:20.895Z,67.10
2022-10-11T13:08:53.172Z,66.90
2022-10-11T13:11:23.629Z,67.00
2022-10-11T13:13:56.356Z,66.60
2022-10-11T13:16:29.463Z,67.20
2022-10-11T13:18:59.262Z,66.10
2022-10-11T13:21:36.130Z,64.80
2022-10-11T13:24:24.305Z,64.10
2022-10-11T13:26:54.418Z,63.50
2022-10-11T13:29:33.646Z,62.90
2022-10-11T13:32:11.069Z,62.10
2022-10-11T13:34:40.304Z,62.20
2022-10-11T13:37:12.315Z,62.80
2022-10-11T13:39:39.253Z,63.60
2022-10-11T13:42:10.800Z,64.10
2022-10-11T13:44:38.635Z,62.70
2022-10-11T13:47:05.804Z,63.20
2022-10-11T13:49:39.729Z,62.90
2022-10-11T13:52:19.311Z,62.20
2022-10-11T13:55:11.309Z,62.90
2022-10-11T13:57:45.114Z,62.80
2022-10-11T14:00:15.090Z,63.20
2022-10-11T14:02:56.058Z,63.30
2022-10-11T14:05:27.717Z,63.90
2022-10-11T14:07:54.721Z,63.50
2022-10-11T14:10:23.104Z,62.70
2022-10-11T14:13:20.591Z,63.00
2022-10-11T14:16:02.407Z,62.90
2022-10-11T14:18:48.619Z,63.30
2022-10-11T14:21:32.165Z,62.40
2022-10-11T14:24:05.674Z,62.20
2022-10-11T14:26:36.981Z,60.80
2022-10-11T14:29:21.556Z,58.20
2022-10-11T14:31:49.437Z,53.00
2022-10-11T14:34:24.467Z,50.10
2022-10-11T14:36:53.251Z,47.70
2022-10-11T14:39:23.018Z,45.40
2022-10-11T14:41:51.141Z,43.70
2022-10-11T14:44:19.293Z,43.70
2022-10-11T14:46:47.330Z,44.00
2022-10-11T14:49:26.588Z,45.10
2022-10-11T14:51:55.212Z,46.50
2022-10-11T14:54:24.907Z,45.90
2022-10-11T14:56:53.505Z,46.20
2022-10-11T14:59:23.139Z,44.70
2022-10-11T15:01:54.175Z,45.00
2022-10-11T15:04:22.195Z,44.70
2022-10-11T15:06:49.413Z,44.80
2022-10-11T15:09:17.222Z,43.00
2022-10-11T15:11:44.523Z,44.70
2022-10-11T15:14:11.231Z,45.40
2022-10-11T15:16:39.944Z,47.00
2022-10-11T15:19:10.918Z,48.60
2022-10-11T15:21:37.672Z,50.40
2022-10-11T15:24:04.534Z,52.70
2022-10-11T15:26:31.302Z,54.30
2022-10-11T15:28:58.256Z,56.60
2022-10-11T15:31:25.085Z,59.00
2022-10-11T15:33:51.996Z,60.30
2022-10-11T15:36:22.011Z,61.30
2022-10-11T15:38:49.429Z,62.30
2022-10-11T15:41:18.775Z,62.90
2022-10-11T15:43:47.101Z,63.50
2022-10-11T15:46:17.359Z,64.50
2022-10-11T15:48:45.009Z,65.00
2022-10-11T15:51:11.913Z,65.70
2022-10-11T15:53:38.902Z,66.10
2022-10-11T15:56:08.651Z,66.50
2022-10-11T15:58:38.709Z,67.20
2022-10-11T16:01:14.465Z,67.70
2022-10-11T16:03:41.782Z,68.20
2022-10-11T16:06:09.476Z,68.60
2022-10-11T16:08:36.443Z,69.20
2022-10-11T16:11:04.591Z,69.50
2022-10-11T16:13:31.669Z,70.00
2022-10-11T16:16:00.905Z,70.50
2022-10-11T16:18:32.587Z,70.90
2022-10-11T16:21:05.436Z,71.70
2022-10-11T16:23:32.241Z,72.20
2022-10-11T16:26:05.191Z,73.00
2022-10-11T16:28:32.415Z,73.20
2022-10-11T16:30:59.203Z,74.20
2022-10-11T16:33:26.581Z,74.60
2022-10-11T16:35:53.947Z,75.10
2022-10-11T16:38:20.617Z,75.60
2022-10-11T16:40:47.392Z,75.80
2022-10-11T16:43:14.090Z,76.10
2022-10-11T16:45:40.772Z,76.20
2022-10-11T16:48:07.491Z,76.40
2022-10-11T16:50:39.108Z,76.70
2022-10-11T16:53:06.432Z,77.00
2022-10-11T16:55:33.177Z,77.10
2022-10-11T16:57:59.859Z,77.60
2022-10-11T17:00:26.634Z,77.70
2022-10-11T17:02:53.331Z,78.20
2022-10-11T17:05:20.089Z,78.30
2022-10-11T17:07:46.775Z,78.70
2022-10-11T17:10:13.475Z,78.60
2022-10-11T17:12:40.268Z,78.30
2022-10-11T17:15:07.707Z,78.50
2022-10-11T17:17:34.481Z,78.80
2022-10-11T17:20:02.355Z,79.00
2022-10-11T17:22:29.212Z,79.10
2022-10-11T17:24:55.924Z,79.70
2022-10-11T17:27:22.618Z,79.70
2022-10-11T17:29:49.380Z,79.90
2022-10-11T17:32:16.057Z,79.60
2022-10-11T17:34:42.778Z,79.30
2022-10-11T17:37:10.042Z,79.30
2022-10-11T17:39:36.862Z,79.30
2022-10-11T17:42:07.258Z,79.50
2022-10-11T17:44:34.949Z,79.80
2022-10-11T17:47:02.722Z,80.10
2022-10-11T17:49:29.539Z,80.10
2022-10-11T17:51:56.749Z,80.20
2022-10-11T17:54:24.019Z,80.30
2022-10-11T17:56:51.054Z,80.50
2022-10-11T17:59:27.211Z,80.60
2022-10-11T18:01:54.322Z,80.40
2022-10-11T18:04:21.753Z,80.50
2022-10-11T18:06:49.245Z,80.30
2022-10-11T18:09:18.341Z,80.20
2022-10-11T18:11:45.827Z,80.10
2022-10-11T18:14:12.609Z,80.30
2022-10-11T18:16:39.740Z,80.30
2022-10-11T18:19:10.054Z,80.60
2022-10-11T18:21:37.756Z,80.30
2022-10-11T18:24:10.621Z,80.60
2022-10-11T18:26:37.706Z,80.70
2022-10-11T18:29:04.854Z,80.80
2022-10-11T18:31:35.776Z,80.70
2022-10-11T18:34:04.537Z,80.60
2022-10-11T18:36:32.418Z,80.50
2022-10-11T18:39:02.102Z,80.40
2022-10-11T18:41:31.649Z,80.70
2022-10-11T18:44:00.847Z,80.70
2022-10-11T18:46:27.973Z,80.60
2022-10-11T18:48:56.240Z,80.60
2022-10-11T18:51:25.441Z,81.00
2022-10-11T18:53:53.425Z,81.10
2022-10-11T18:56:21.979Z,81.20
2022-10-11T18:58:50.882Z,81.20
2022-10-11T19:01:20.632Z,81.20
2022-10-11T19:03:49.276Z,81.00
2022-10-11T19:06:18.528Z,80.90
2022-10-11T19:08:46.704Z,80.90
2022-10-11T19:11:15.506Z,80.90
2022-10-11T19:13:43.541Z,80.60
2022-10-11T19:16:13.448Z,81.00
2022-10-11T19:18:44.109Z,80.90
2022-10-11T19:21:13.039Z,81.00
2022-10-11T19:23:42.089Z,80.90
2022-10-11T19:26:29.996Z,80.90
2022-10-11T19:29:02.313Z,80.80
2022-10-11T19:31:30.292Z,80.80
2022-10-11T19:33:57.903Z,80.80
2022-10-11T19:36:25.246Z,80.90
2022-10-11T19:38:52.186Z,80.50
2022-10-11T19:41:20.274Z,80.40
2022-10-11T19:43:47.396Z,80.80
2022-10-11T19:46:27.360Z,80.70
2022-10-11T19:49:03.799Z,80.50
2022-10-11T19:51:34.728Z,80.40
2022-10-11T19:54:03.570Z,80.30
2022-10-11T19:56:32.095Z,80.30
2022-10-11T19:58:59.354Z,80.10
2022-10-11T20:01:28.606Z,80.50
2022-10-11T20:04:03.362Z,80.60
2022-10-11T20:06:37.225Z,80.20
2022-10-11T20:09:28.055Z,80.30
2022-10-11T20:11:52.422Z,80.30
2022-10-11T20:14:19.319Z,80.50
2022-10-11T20:16:46.134Z,80.40
2022-10-11T20:19:12.890Z,80.50
2022-10-11T20:21:40.744Z,80.80
2022-10-11T20:24:08.537Z,81.10
2022-10-11T20:26:35.515Z,80.70
2022-10-11T20:29:02.270Z,80.80
2022-10-11T20:31:32.822Z,80.80
2022-10-11T20:34:02.107Z,80.70
2022-10-11T20:36:30.274Z,80.60
2022-10-11T20:38:58.975Z,80.70
2022-10-11T20:41:36.842Z,80.90
2022-10-11T20:44:04.551Z,80.60
2022-10-11T20:46:37.434Z,80.80
2022-10-11T20:49:07.506Z,80.60
2022-10-11T20:51:36.265Z,80.70
2022-10-11T20:54:04.601Z,80.60
2022-10-11T20:56:31.821Z,80.70
2022-10-11T20:58:58.878Z,80.40
2022-10-11T21:01:31.295Z,80.40
2022-10-11T21:03:59.468Z,80.40
2022-10-11T21:06:26.974Z,80.80
2022-10-11T21:08:56.022Z,80.80
2022-10-11T21:11:26.951Z,80.90
2022-10-11T21:13:58.689Z,80.70
2022-10-11T21:16:25.903Z,80.90
2022-10-11T21:18:54.508Z,80.90
2022-10-11T21:21:23.363Z,80.70
2022-10-11T21:23:53.896Z,81.10
2022-10-11T21:26:20.697Z,81.60
2022-10-11T21:28:47.507Z,81.40
2022-10-11T21:31:16.346Z,81.20
2022-10-11T21:33:44.320Z,81.20
2022-10-11T21:36:16.706Z,81.10
2022-10-11T21:38:43.853Z,81.00
2022-10-11T21:41:13.852Z,81.20
2022-10-11T21:43:40.630Z,80.90
2022-10-11T21:46:16.006Z,81.10
2022-10-11T21:48:42.716Z,81.20
2022-10-11T21:51:30.810Z,81.10
2022-10-11T21:54:00.256Z,81.20
2022-10-11T21:56:28.323Z,81.40
2022-10-11T21:58:55.492Z,81.20
2022-10-11T22:01:23.236Z,81.30
2022-10-11T22:03:52.169Z,81.20
2022-10-11T22:06:19.405Z,81.50
2022-10-11T22:08:46.306Z,81.60
2022-10-11T22:11:13.291Z,81.60
2022-10-11T22:13:40.758Z,81.80
2022-10-11T22:16:10.040Z,81.60
2022-10-11T22:18:37.015Z,81.80
2022-10-11T22:21:18.304Z,82.10
2022-10-11T22:23:47.399Z,82.20
2022-10-11T22:26:22.884Z,82.10
2022-10-11T22:28:49.951Z,82.00
2022-10-11T22:31:18.841Z,82.20
2022-10-11T22:36:18.963Z,82.10
2022-10-11T22:38:45.712Z,82.10
2022-10-11T22:41:12.672Z,82.30
2022-10-11T22:43:39.397Z,82.30
2022-10-11T22:46:06.766Z,82.10
2022-10-11T22:48:33.633Z,82.10
2022-10-11T22:51:00.644Z,81.90
2022-10-11T22:53:27.515Z,82.30
2022-10-11T22:55:54.338Z,82.20
2022-10-11T22:58:21.057Z,82.10
2022-10-11T23:00:48.277Z,82.30
2022-10-11T23:03:18.626Z,82.00
2022-10-11T23:05:55.209Z,82.30
2022-10-11T23:08:22.282Z,82.30
2022-10-11T23:10:49.036Z,82.60
2022-10-11T23:13:15.838Z,82.50
2022-10-11T23:15:42.850Z,82.50
2022-10-11T23:18:09.628Z,82.60
2022-10-11T23:20:38.589Z,82.30
2022-10-11T23:23:06.402Z,82.90
2022-10-11T23:25:33.133Z,82.80
2022-10-11T23:28:01.100Z,82.70
2022-10-11T23:30:29.192Z,82.50
2022-10-11T23:32:55.907Z,82.70
2022-10-11T23:35:22.693Z,82.80
2022-10-11T23:37:49.489Z,82.90
2022-10-11T23:40:16.297Z,82.90
2022-10-11T23:42:43.186Z,82.90
2022-10-11T23:45:10.286Z,83.00
2022-10-11T23:47:37.120Z,83.00
2022-10-11T23:50:04.444Z,82.50
2022-10-11T23:52:31.114Z,82.80
2022-10-11T23:54:57.810Z,82.70
2022-10-11T23:57:24.465Z,83.20
2022-10-11T23:59:51.178Z,83.30
